createdAt,value
2022-12-20T00:01:40.992Z,101590.16
2022-12-20T00:04:11.062Z,101596.38
2022-12-20T00:06:38.726Z,101590.00
2022-12-20T00:09:09.367Z,101574.75
2022-12-20T00:11:41.094Z,101577.19
2022-12-20T00:14:10.521Z,101573.84
2022-12-20T00:16:38.230Z,101564.69
2022-12-20T00:19:07.818Z,101575.34
2022-12-20T00:21:36.372Z,101574.63
2022-12-20T00:24:06.195Z,101576.13
2022-12-20T00:26:35.696Z,101570.94
2022-12-20T00:29:03.426Z,101571.09
2022-12-20T00:31:32.636Z,101564.56
2022-12-20T00:34:01.170Z,101567.88
2022-12-20T00:36:31.926Z,101560.28
2022-12-20T00:39:01.447Z,101559.22
2022-12-20T00:41:33.586Z,101559.69
2022-12-20T00:44:02.111Z,101546.28
2022-12-20T00:46:31.710Z,101548.88
2022-12-20T00:49:00.111Z,101554.94
2022-12-20T00:51:32.529Z,101539.84
2022-12-20T00:53:59.982Z,101543.81
2022-12-20T00:56:27.530Z,101547.63
2022-12-20T00:59:00.166Z,101533.91
2022-12-20T01:01:32.662Z,101538.03
2022-12-20T01:04:01.198Z,101531.78
2022-12-20T01:06:30.226Z,101519.75
2022-12-20T01:08:58.287Z,101518.81
2022-12-20T01:11:35.938Z,101524.00
2022-12-20T01:14:15.567Z,101525.66
2022-12-20T01:16:46.442Z,101523.22
2022-12-20T01:19:18.438Z,101519.91
2022-12-20T01:21:45.957Z,101513.66
2022-12-20T01:24:20.036Z,101516.25
2022-12-20T01:26:47.989Z,101532.53
2022-12-20T01:29:16.019Z,101533.28
2022-12-20T01:31:44.605Z,101524.47
2022-12-20T01:34:12.462Z,101525.50
2022-12-20T01:36:40.560Z,101516.84
2022-12-20T01:39:14.479Z,101521.09
2022-12-20T01:41:45.329Z,101510.59
2022-12-20T01:44:18.538Z,101520.78
2022-12-20T01:46:49.751Z,101520.94
2022-12-20T01:49:25.825Z,101522.63
2022-12-20T01:52:23.041Z,101513.78
2022-12-20T01:55:16.036Z,101527.47
2022-12-20T01:57:59.483Z,101518.97
2022-12-20T02:00:26.947Z,101517.44
2022-12-20T02:02:56.018Z,101513.78
2022-12-20T02:05:24.180Z,101505.25
2022-12-20T02:07:56.064Z,101513.78
2022-12-20T02:10:34.534Z,101506.75
2022-12-20T02:13:20.264Z,101489.72
2022-12-20T02:15:57.644Z,101494.59
2022-12-20T02:18:46.136Z,101485.75
2022-12-20T02:21:34.834Z,101496.41
2022-12-20T02:25:16.978Z,101475.69
2022-12-20T02:28:12.605Z,101482.72
2022-12-20T02:30:45.897Z,101489.72
2022-12-20T02:33:15.082Z,101486.97
2022-12-20T02:35:43.040Z,101487.91
2022-12-20T02:38:34.859Z,101491.22
2022-12-20T02:41:25.467Z,101489.41
2022-12-20T02:44:20.713Z,101485.16
2022-12-20T02:46:49.095Z,101483.47
2022-12-20T02:49:23.865Z,101485.16
2022-12-20T02:51:54.506Z,101475.25
2022-12-20T02:54:22.621Z,101478.63
2022-12-20T02:57:39.329Z,101473.28
2022-12-20T03:00:19.321Z,101476.31
2022-12-20T03:03:07.165Z,101474.50
2022-12-20T03:05:44.482Z,101469.00
2022-12-20T03:08:12.432Z,101467.91
2022-12-20T03:10:39.726Z,101460.16
2022-12-20T03:13:07.658Z,101458.03
2022-12-20T03:15:37.044Z,101460.91
2022-12-20T03:18:04.908Z,101460.16
2022-12-20T03:20:32.347Z,101452.69
2022-12-20T03:22:59.764Z,101449.78
2022-12-20T03:25:27.623Z,101451.63
2022-12-20T03:27:57.685Z,101450.69
2022-12-20T03:30:26.222Z,101455.28
2022-12-20T03:32:53.539Z,101452.22
2022-12-20T03:35:20.879Z,101438.34
2022-12-20T03:37:48.088Z,101442.44
2022-12-20T03:40:16.129Z,101448.72
2022-12-20T03:42:44.491Z,101445.50
2022-12-20T03:45:11.907Z,101447.66
2022-12-20T03:47:39.527Z,101448.56
2022-12-20T03:50:08.173Z,101450.25
2022-12-20T03:52:36.321Z,101445.97
2022-12-20T03:55:06.203Z,101452.22
2022-12-20T03:57:40.409Z,101435.91
2022-12-20T04:00:19.027Z,101431.81
2022-12-20T04:02:49.032Z,101444.00
2022-12-20T04:05:16.749Z,101442.03
2022-12-20T04:07:45.288Z,101440.78
2022-12-20T04:10:12.847Z,101447.63
2022-12-20T04:12:40.112Z,101437.72
2022-12-20T04:15:11.069Z,101437.88
2022-12-20T04:17:40.654Z,101430.44
2022-12-20T04:20:21.635Z,101437.44
2022-12-20T04:22:57.601Z,101428.16
2022-12-20T04:25:24.924Z,101427.84
2022-12-20T04:27:55.311Z,101423.53
2022-12-20T04:30:22.727Z,101422.00
2022-12-20T04:32:54.577Z,101417.13
2022-12-20T04:35:22.480Z,101410.75
2022-12-20T04:37:50.224Z,101405.44
2022-12-20T04:40:18.457Z,101409.84
2022-12-20T04:42:49.258Z,101404.34
2022-12-20T04:45:17.488Z,101413.34
2022-12-20T04:47:44.991Z,101411.06
2022-12-20T04:50:14.665Z,101401.91
2022-12-20T04:53:02.812Z,101401.28
2022-12-20T04:55:32.022Z,101397.63
2022-12-20T04:58:03.736Z,101396.44
2022-12-20T05:00:35.584Z,101399.19
2022-12-20T05:03:10.844Z,101400.09
2022-12-20T05:05:38.202Z,101401.75
2022-12-20T05:08:05.856Z,101393.06
2022-12-20T05:10:33.156Z,101394.00
2022-12-20T05:13:07.438Z,101391.88
2022-12-20T05:15:40.336Z,101403.47
2022-12-20T05:18:07.815Z,101392.81
2022-12-20T05:20:44.217Z,101398.28
2022-12-20T05:23:31.263Z,101399.50
2022-12-20T05:26:18.485Z,101395.69
2022-12-20T05:28:46.151Z,101408.34
2022-12-20T05:31:13.563Z,101404.81
2022-12-20T05:33:40.736Z,101408.03
2022-12-20T05:36:09.238Z,101405.75
2022-12-20T05:38:36.826Z,101402.84
2022-12-20T05:41:11.105Z,101402.84
2022-12-20T05:43:38.438Z,101402.53
2022-12-20T05:46:06.419Z,101399.50
2022-12-20T05:48:42.598Z,101404.34
2022-12-20T05:51:11.255Z,101395.53
2022-12-20T05:53:55.513Z,101385.19
2022-12-20T05:56:35.055Z,101399.66
2022-12-20T05:59:02.384Z,101396.00
2022-12-20T06:01:29.713Z,101391.16
2022-12-20T06:03:59.571Z,101389.63
2022-12-20T06:06:27.112Z,101386.28
2022-12-20T06:08:56.201Z,101384.31
2022-12-20T06:11:37.656Z,101388.09
2022-12-20T06:14:09.216Z,101389.47
2022-12-20T06:16:39.980Z,101384.31
2022-12-20T06:19:09.576Z,101385.66
2022-12-20T06:21:37.197Z,101389.03
2022-12-20T06:24:06.068Z,101396.63
2022-12-20T06:26:36.565Z,101398.91
2022-12-20T06:29:09.133Z,101399.81
2022-12-20T06:31:51.844Z,101399.81
2022-12-20T06:34:19.351Z,101384.59
2022-12-20T06:36:46.833Z,101390.22
2022-12-20T06:39:19.295Z,101383.97
2022-12-20T06:41:56.910Z,101387.31
2022-12-20T06:44:24.618Z,101380.19
2022-12-20T06:46:51.968Z,101381.88
2022-12-20T06:49:19.502Z,101381.56
2022-12-20T06:51:47.771Z,101376.38
2022-12-20T06:54:15.517Z,101388.88
2022-12-20T06:56:42.815Z,101383.06
2022-12-20T06:59:12.320Z,101383.06
2022-12-20T07:01:39.695Z,101382.59
2022-12-20T07:04:06.984Z,101387.03
2022-12-20T07:06:34.420Z,101394.03
2022-12-20T07:09:02.230Z,101391.59
2022-12-20T07:11:29.526Z,101386.13
2022-12-20T07:13:58.027Z,101391.44
2022-12-20T07:16:25.698Z,101396.31
2022-12-20T07:18:54.111Z,101395.44
2022-12-20T07:21:22.127Z,101399.84
2022-12-20T07:23:49.774Z,101398.31
2022-12-20T07:26:17.050Z,101402.41
2022-12-20T07:28:44.714Z,101410.81
2022-12-20T07:31:12.073Z,101404.09
2022-12-20T07:33:39.687Z,101387.66
2022-12-20T07:36:12.518Z,101397.69
2022-12-20T07:38:39.995Z,101390.88
2022-12-20T07:41:16.819Z,101397.25
2022-12-20T07:43:44.207Z,101392.38
2022-12-20T07:46:15.779Z,101390.69
2022-12-20T07:48:44.658Z,101384.75
2022-12-20T07:51:32.284Z,101395.88
2022-12-20T07:54:10.570Z,101400.91
2022-12-20T07:56:44.217Z,101399.84
2022-12-20T07:59:17.943Z,101404.41
2022-12-20T08:01:46.548Z,101397.69
2022-12-20T08:04:21.937Z,101399.84
2022-12-20T08:06:51.144Z,101398.63
2022-12-20T08:09:19.259Z,101395.56
2022-12-20T08:11:50.121Z,101399.53
2022-12-20T08:14:19.531Z,101400.44
2022-12-20T08:16:46.756Z,101405.78
2022-12-20T08:19:13.963Z,101404.13
2022-12-20T08:21:41.129Z,101402.72
2022-12-20T08:24:08.885Z,101398.63
2022-12-20T08:26:41.784Z,101396.94
2022-12-20T08:29:09.823Z,101387.66
2022-12-20T08:31:49.480Z,101392.81
2022-12-20T08:34:18.868Z,101393.91
2022-12-20T08:36:46.047Z,101393.16
2022-12-20T08:39:13.466Z,101398.78
2022-12-20T08:41:40.656Z,101393.59
2022-12-20T08:44:08.557Z,101395.28
2022-12-20T08:46:37.070Z,101397.69
2022-12-20T08:49:06.107Z,101387.31
2022-12-20T08:51:33.680Z,101394.06
2022-12-20T08:54:02.560Z,101397.41
2022-12-20T08:56:29.889Z,101399.25
2022-12-20T08:58:57.533Z,101392.38
2022-12-20T09:01:26.860Z,101394.34
2022-12-20T09:03:54.227Z,101389.47
2022-12-20T09:06:23.202Z,101387.94
2022-12-20T09:08:51.156Z,101398.13
2022-12-20T09:11:25.198Z,101384.59
2022-12-20T09:13:57.350Z,101388.88
2022-12-20T09:16:31.926Z,101383.38
2022-12-20T09:19:05.583Z,101379.69
2022-12-20T09:21:34.883Z,101369.94
2022-12-20T09:24:02.354Z,101379.34
2022-12-20T09:26:30.588Z,101373.13
2022-12-20T09:28:58.740Z,101379.69
2022-12-20T09:31:27.144Z,101388.34
2022-12-20T09:33:57.881Z,101385.00
2022-12-20T09:36:29.588Z,101388.19
2022-12-20T09:38:57.624Z,101376.78
2022-12-20T09:41:41.272Z,101390.53
2022-12-20T09:44:30.931Z,101385.50
2022-12-20T09:47:21.324Z,101389.13
2022-12-20T09:49:55.249Z,101386.72
2022-12-20T09:53:22.416Z,101386.53
2022-12-20T09:56:03.919Z,101381.06
2022-12-20T09:59:06.457Z,101380.31
2022-12-20T10:01:40.001Z,101364.09
2022-12-20T10:04:26.762Z,101376.72
2022-12-20T10:07:19.637Z,101371.41
2022-12-20T10:10:36.302Z,101362.63
2022-12-20T10:13:26.167Z,101355.16
2022-12-20T10:16:36.063Z,101350.25
2022-12-20T10:19:43.833Z,101356.03
2022-12-20T10:22:27.587Z,101341.97
2022-12-20T10:25:25.172Z,101343.31
2022-12-20T10:27:57.037Z,101339.38
2022-12-20T10:30:28.151Z,101333.16
2022-12-20T10:32:58.816Z,101334.47
2022-12-20T10:35:41.378Z,101329.81
2022-12-20T10:38:13.329Z,101331.91
2022-12-20T10:41:21.756Z,101336.59
2022-12-20T10:44:24.292Z,101323.63
2022-12-20T10:46:59.561Z,101332.41
2022-12-20T10:49:40.983Z,101313.03
2022-12-20T10:52:08.222Z,101311.16
2022-12-20T10:54:43.104Z,101319.81
2022-12-20T10:57:29.447Z,101318.34
2022-12-20T11:00:09.025Z,101298.84
2022-12-20T11:02:42.391Z,101288.81
2022-12-20T11:05:12.807Z,101287.66
2022-12-20T11:10:46.432Z,101269.78
2022-12-20T11:13:26.221Z,101271.63
2022-12-20T11:15:57.694Z,101260.63
2022-12-20T11:18:52.836Z,101256.84
2022-12-20T11:21:56.647Z,101245.53
2022-12-20T11:25:14.759Z,101247.63
2022-12-20T11:28:10.500Z,101243.72
2022-12-20T11:31:21.781Z,101236.00
2022-12-20T11:34:22.848Z,101221.97
2022-12-20T11:37:30.658Z,101215.16
2022-12-20T11:40:28.156Z,101219.09
2022-12-20T11:43:13.674Z,101212.91
2022-12-20T11:46:30.650Z,101220.22
2022-12-20T11:49:14.024Z,101212.19
2022-12-20T11:52:33.433Z,101200.72
2022-12-20T11:55:21.693Z,101214.59
2022-12-20T11:58:21.081Z,101209.47
2022-12-20T12:01:05.389Z,101195.69
2022-12-20T12:04:17.132Z,101188.19
2022-12-20T12:07:02.873Z,101179.25
2022-12-20T12:10:09.723Z,101164.91
2022-12-20T12:12:58.074Z,101158.91
2022-12-20T12:16:03.428Z,101161.63
2022-12-20T12:18:36.984Z,101157.72
2022-12-20T12:21:26.358Z,101146.59
2022-12-20T12:24:30.980Z,101144.88
2022-12-20T12:27:02.146Z,101153.84
2022-12-20T12:29:32.824Z,101142.91
2022-12-20T12:32:09.927Z,101145.50
2022-12-20T12:35:17.403Z,101139.09
2022-12-20T12:38:15.553Z,101141.84
2022-12-20T12:41:32.754Z,101140.69
2022-12-20T12:44:54.310Z,101130.66
2022-12-20T12:48:19.546Z,101126.34
2022-12-20T12:50:53.996Z,101115.59
2022-12-20T12:53:44.825Z,101119.31
2022-12-20T12:56:52.022Z,101122.97
2022-12-20T12:59:32.581Z,101111.78
2022-12-20T13:02:15.264Z,101121.69
2022-12-20T13:05:07.065Z,101111.47
2022-12-20T13:07:35.102Z,101115.75
2022-12-20T13:10:25.057Z,101113.69
2022-12-20T13:12:52.814Z,101117.72
2022-12-20T13:15:22.883Z,101119.59
2022-12-20T13:17:57.021Z,101105.31
2022-12-20T13:20:33.714Z,101126.66
2022-12-20T13:23:23.920Z,101118.47
2022-12-20T13:25:52.654Z,101107.13
2022-12-20T13:28:20.455Z,101126.34
2022-12-20T13:31:09.853Z,101107.91
2022-12-20T13:33:51.514Z,101121.31
2022-12-20T13:36:37.773Z,101108.91
2022-12-20T13:39:25.510Z,101108.66
2022-12-20T13:42:41.489Z,101110.22
2022-12-20T13:45:15.404Z,101116.41
2022-12-20T13:48:01.287Z,101115.22
2022-12-20T13:50:40.429Z,101107.81
2022-12-20T13:53:19.900Z,101114.94
2022-12-20T13:55:48.758Z,101102.47
2022-12-20T13:58:36.904Z,101102.84
2022-12-20T14:01:13.370Z,101096.78
2022-12-20T14:03:46.256Z,101093.50
2022-12-20T14:06:15.594Z,101102.47
2022-12-20T14:08:49.784Z,101096.75
2022-12-20T14:11:28.095Z,101098.91
2022-12-20T14:14:03.007Z,101088.97
2022-12-20T14:16:33.465Z,101092.34
2022-12-20T14:19:07.610Z,101092.22
2022-12-20T14:21:43.046Z,101088.66
2022-12-20T14:24:22.603Z,101075.78
2022-12-20T14:26:53.709Z,101080.38
2022-12-20T14:29:30.963Z,101074.16
2022-12-20T14:31:58.351Z,101079.63
2022-12-20T14:34:36.701Z,101062.16
2022-12-20T14:37:53.107Z,101061.19
2022-12-20T14:40:21.495Z,101070.78
2022-12-20T14:42:48.896Z,101061.03
2022-12-20T14:45:21.375Z,101064.38
2022-12-20T14:48:09.320Z,101062.34
2022-12-20T14:50:40.679Z,101062.84
2022-12-20T14:53:30.239Z,101057.28
2022-12-20T14:55:58.170Z,101047.81
2022-12-20T14:58:32.070Z,101043.72
2022-12-20T15:01:27.187Z,101053.69
2022-12-20T15:04:00.307Z,101061.88
2022-12-20T15:06:52.500Z,101048.91
2022-12-20T15:09:20.413Z,101057.63
2022-12-20T15:11:48.676Z,101057.66
2022-12-20T15:14:37.299Z,101063.91
2022-12-20T15:17:13.193Z,101052.72
2022-12-20T15:19:42.839Z,101053.19
2022-12-20T15:22:18.779Z,101063.00
2022-12-20T15:24:45.860Z,101064.88
2022-12-20T15:27:14.878Z,101067.47
2022-12-20T15:29:43.168Z,101058.53
2022-12-20T15:32:32.010Z,101065.53
2022-12-20T15:34:59.265Z,101077.09
2022-12-20T15:37:26.510Z,101067.47
2022-12-20T15:39:53.735Z,101042.34
2022-12-20T15:42:22.879Z,101057.63
2022-12-20T15:44:50.594Z,101056.84
2022-12-20T15:47:17.849Z,101053.97
2022-12-20T15:49:50.130Z,101056.34
2022-12-20T15:52:23.706Z,101046.69
2022-12-20T15:54:51.351Z,101049.91
2022-12-20T15:57:18.553Z,101056.91
2022-12-20T16:00:03.410Z,101063.28
2022-12-20T16:02:39.142Z,101062.53
2022-12-20T16:05:10.934Z,101063.00
2022-12-20T16:07:38.253Z,101050.81
2022-12-20T16:10:07.949Z,101057.81
2022-12-20T16:12:36.544Z,101059.28
2022-12-20T16:15:05.102Z,101061.78
2022-12-20T16:17:32.337Z,101057.34
2022-12-20T16:19:59.543Z,101054.19
2022-12-20T16:22:26.883Z,101042.34
2022-12-20T16:24:54.334Z,101045.22
2022-12-20T16:27:21.593Z,101044.28
2022-12-20T16:29:48.895Z,101036.31
2022-12-20T16:32:19.756Z,101050.69
2022-12-20T16:34:49.737Z,101049.47
2022-12-20T16:37:17.250Z,101044.28
2022-12-20T16:39:44.993Z,101048.72
2022-12-20T16:42:20.917Z,101046.59
2022-12-20T16:44:52.992Z,101054.06
2022-12-20T16:47:20.405Z,101053.00
2022-12-20T16:49:52.834Z,101059.84
2022-12-20T16:52:22.733Z,101052.72
2022-12-20T16:54:50.824Z,101052.44
2022-12-20T16:57:18.339Z,101057.53
2022-12-20T16:59:45.508Z,101054.19
2022-12-20T17:02:34.971Z,101051.59
2022-12-20T17:05:02.576Z,101056.91
2022-12-20T17:07:29.828Z,101056.00
2022-12-20T17:09:59.194Z,101057.66
2022-12-20T17:12:26.536Z,101056.66
2022-12-20T17:14:53.711Z,101062.84
2022-12-20T17:17:20.987Z,101061.19
2022-12-20T17:19:48.213Z,101056.91
2022-12-20T17:25:03.157Z,101051.94
2022-12-20T17:27:30.465Z,101052.44
2022-12-20T17:29:57.716Z,101057.38
2022-12-20T17:32:26.116Z,101038.34
2022-12-20T17:34:54.379Z,101052.63
2022-12-20T17:37:21.853Z,101051.66
2022-12-20T17:39:49.225Z,101031.88
2022-12-20T17:42:16.835Z,101041.00
2022-12-20T17:44:46.134Z,101030.91
2022-12-20T17:47:13.581Z,101022.31
2022-12-20T17:49:40.863Z,101027.47
2022-12-20T17:52:16.212Z,101032.81
2022-12-20T17:54:43.464Z,101030.34
2022-12-20T17:57:15.829Z,101028.25
2022-12-20T17:59:43.798Z,101023.69
2022-12-20T18:02:23.215Z,101042.47
2022-12-20T18:04:51.420Z,101037.06
2022-12-20T18:07:18.696Z,101031.13
2022-12-20T18:09:49.259Z,101036.59
2022-12-20T18:12:17.896Z,101028.59
2022-12-20T18:14:45.218Z,101027.13
2022-12-20T18:17:12.507Z,101026.78
2022-12-20T18:19:40.782Z,101016.13
2022-12-20T18:22:08.101Z,101029.44
2022-12-20T18:24:35.294Z,101028.81
2022-12-20T18:27:02.551Z,101019.06
2022-12-20T18:29:30.131Z,101017.38
2022-12-20T18:31:57.644Z,101013.25
2022-12-20T18:34:25.024Z,101020.63
2022-12-20T18:36:52.257Z,101019.34
2022-12-20T18:39:19.617Z,101009.63
2022-12-20T18:41:48.264Z,101015.44
2022-12-20T18:44:15.680Z,101016.59
2022-12-20T18:46:42.910Z,101003.50
2022-12-20T18:49:10.216Z,101003.50
2022-12-20T18:51:37.495Z,101016.00
2022-12-20T18:54:08.055Z,101020.53
2022-12-20T18:56:38.532Z,101021.59
2022-12-20T18:59:12.059Z,101018.44
2022-12-20T19:01:42.337Z,101014.88
2022-12-20T19:04:11.109Z,101014.47
2022-12-20T19:06:38.727Z,101024.97
2022-12-20T19:09:10.947Z,101036.78
2022-12-20T19:11:39.582Z,101029.84
2022-12-20T19:14:07.842Z,101015.59
2022-12-20T19:16:35.805Z,101010.47
2022-12-20T19:19:04.220Z,101017.34
2022-12-20T19:21:35.145Z,101016.97
2022-12-20T19:24:06.944Z,101025.53
2022-12-20T19:26:37.523Z,101012.72
2022-12-20T19:29:06.450Z,101026.44
2022-12-20T19:31:37.490Z,101015.84
2022-12-20T19:34:11.213Z,101032.66
2022-12-20T19:36:43.123Z,101024.25
2022-12-20T19:39:22.126Z,101014.53
2022-12-20T19:42:21.828Z,101024.97
2022-12-20T19:44:37.832Z,101026.66
2022-12-20T19:47:05.341Z,101028.00
2022-12-20T19:49:32.727Z,101020.63
2022-12-20T19:51:59.989Z,101014.25
2022-12-20T19:54:27.567Z,101014.53
2022-12-20T19:56:54.813Z,101007.25
2022-12-20T19:59:22.211Z,101015.50
2022-12-20T20:01:49.544Z,101007.94
2022-12-20T20:04:16.803Z,101000.81
2022-12-20T20:06:44.181Z,101012.72
2022-12-20T20:09:11.422Z,101021.41
2022-12-20T20:11:38.625Z,101000.69
2022-12-20T20:14:09.176Z,100999.91
2022-12-20T20:16:37.867Z,100990.31
2022-12-20T20:19:05.561Z,100998.38
2022-12-20T20:21:36.229Z,100997.59
2022-12-20T20:24:04.063Z,100993.31
2022-12-20T20:26:31.829Z,101002.78
2022-12-20T20:29:02.356Z,101007.59
2022-12-20T20:31:30.462Z,101001.78
2022-12-20T20:33:58.481Z,101006.06
2022-12-20T20:36:25.779Z,101009.72
2022-12-20T20:38:53.265Z,101008.28
2022-12-20T20:41:20.491Z,101010.25
2022-12-20T20:43:48.024Z,100993.78
2022-12-20T20:46:17.447Z,100993.50
2022-12-20T20:48:45.708Z,100993.22
2022-12-20T20:51:13.393Z,100997.22
2022-12-20T20:53:41.014Z,100996.31
2022-12-20T20:56:09.586Z,100996.06
2022-12-20T20:58:38.017Z,100989.03
2022-12-20T21:01:09.084Z,100983.09
2022-12-20T21:03:37.377Z,100995.00
2022-12-20T21:06:37.042Z,100999.66
2022-12-20T21:08:55.468Z,100997.34
2022-12-20T21:11:23.286Z,100989.59
2022-12-20T21:13:50.567Z,100988.03
2022-12-20T21:16:22.526Z,100985.19
2022-12-20T21:18:56.912Z,100978.94
2022-12-20T21:21:26.144Z,100977.91
2022-12-20T21:23:54.901Z,100989.53
2022-12-20T21:26:25.189Z,100983.97
2022-12-20T21:29:00.951Z,100988.22
2022-12-20T21:31:29.336Z,100987.25
2022-12-20T21:33:57.252Z,100982.31
2022-12-20T21:36:24.936Z,100983.28
2022-12-20T21:38:58.033Z,100975.19
2022-12-20T21:41:28.405Z,100980.66
2022-12-20T21:43:58.899Z,100984.56
2022-12-20T21:46:29.099Z,100998.38
2022-12-20T21:48:56.553Z,101005.78
2022-12-20T21:51:27.103Z,101005.22
2022-12-20T21:54:01.456Z,101009.84
2022-12-20T21:56:34.128Z,101002.13
2022-12-20T21:59:04.027Z,100992.41
2022-12-20T22:01:32.107Z,101003.34
2022-12-20T22:04:04.070Z,100998.72
2022-12-20T22:06:32.452Z,100982.63
2022-12-20T22:09:02.158Z,100977.28
2022-12-20T22:11:29.402Z,100975.31
2022-12-20T22:13:57.984Z,100974.28
2022-12-20T22:16:30.043Z,100979.94
2022-12-20T22:18:59.444Z,100979.66
2022-12-20T22:21:31.362Z,100978.63
2022-12-20T22:24:01.119Z,100970.56
2022-12-20T22:26:32.080Z,100967.84
2022-12-20T22:29:04.084Z,100968.72
2022-12-20T22:31:32.245Z,100963.53
2022-12-20T22:34:00.251Z,100962.78
2022-12-20T22:36:28.409Z,100974.19
2022-12-20T22:38:57.227Z,100976.03
2022-12-20T22:41:34.816Z,100966.84
2022-12-20T22:44:03.237Z,100964.19
2022-12-20T22:46:30.922Z,100971.13
2022-12-20T22:49:01.454Z,100968.31
2022-12-20T22:51:30.840Z,100954.59
2022-12-20T22:53:59.550Z,100941.06
2022-12-20T22:56:27.177Z,100941.50
2022-12-20T22:58:54.453Z,100939.31
2022-12-20T23:01:21.960Z,100942.69
2022-12-20T23:03:49.597Z,100950.53
2022-12-20T23:06:20.735Z,100946.00
2022-12-20T23:08:49.190Z,100930.25
2022-12-20T23:11:45.758Z,100918.97
2022-12-20T23:14:36.364Z,100912.09
2022-12-20T23:17:06.501Z,100907.22
2022-12-20T23:19:53.336Z,100904.25
2022-12-20T23:22:39.390Z,100911.56
2022-12-20T23:25:18.127Z,100913.91
2022-12-20T23:27:49.252Z,100892.31
2022-12-20T23:30:22.254Z,100891.13
2022-12-20T23:32:49.921Z,100897.97
2022-12-20T23:35:20.007Z,100902.41
2022-12-20T23:37:48.325Z,100908.47
2022-12-20T23:40:17.433Z,100924.63
2022-12-20T23:42:45.381Z,100898.75
2022-12-20T23:45:12.613Z,100890.19
2022-12-20T23:47:39.962Z,100882.25
2022-12-20T23:50:08.246Z,100885.94
2022-12-20T23:52:35.533Z,100886.31
2022-12-20T23:55:03.140Z,100870.75
2022-12-20T23:57:31.343Z,100870.47
2022-12-20T23:59:58.684Z,100875.09
